Monument, Kansas
Current Conditions -  °F | °C
As of 8:15 PM on Saturday 22 Nov 2014 (Local Time) from KCBK Reporting Station
Clear Clear  
Wind Chill: 42°   Ceiling: Unl
Heat Index: 46°   Visibility: 10mi
Dew Point: 30°   Wind: 8mph
Humidity: 53%   Direction: 160°SSE
Pressure: 29.54"   Gusts: NA
Location:  39.1°N, 101.01°W
Report Text: KCBK 230215Z AUTO 16007KT 10SM CLR 08/M01 A2954 RMK AO2
Loading
Personal Weather Stations






























Interactive Weather Map New forecast layout! Learn more

10-Day Weather Forecast

Advertisements
Track Severe Weather on mobile